Time;durP1;ratioP1;P1;durP2;ratioP2;P2;SDS_P1;SDS_P2;PMS_P1;PMS_P2;Temp;Humidity;BMP_temperature;BMP_pressure;BME280_temperature;BME280_humidity;BME280_pressure;Samples;Min_cycle;Max_cycle;Signal;HPM_P1;HPM_P2
2023/10/08 00:01:03;;;;;;;0.70;0.70;;;18.70;99.90;;;;;;5007249;28;20437;-82
2023/10/08 00:03:29;;;;;;;0.60;0.40;;;18.70;99.90;;;;;;5004768;28;20438;-83
2023/10/08 00:05:55;;;;;;;0.40;0.30;;;18.70;99.90;;;;;;5002342;28;20479;-81
2023/10/08 00:08:21;;;;;;;0.60;0.30;;;18.80;99.80;;;;;;5002992;28;20213;-81
2023/10/08 00:10:47;;;;;;;0.40;0.20;;;19.00;99.90;;;;;;5003168;28;20460;-85
2023/10/08 00:13:15;;;;;;;0.50;0.30;;;18.80;99.80;;;;;;4990574;28;20461;-82
2023/10/08 00:15:49;;;;;;;1.17;1.07;;;18.90;99.80;;;;;;4985877;28;21346;-81
2023/10/08 00:18:15;;;;;;;0.40;0.30;;;18.90;99.70;;;;;;4999916;28;20445;-83
2023/10/08 00:20:54;;;;;;;0.50;0.50;;;18.80;99.70;;;;;;4997584;28;20452;-79
2023/10/08 00:23:21;;;;;;;3.27;0.43;;;18.70;99.90;;;;;;4987001;28;20295;-80
2023/10/08 00:25:47;;;;;;;0.80;0.30;;;18.80;99.60;;;;;;5004286;28;20467;-82
2023/10/08 00:28:17;;;;;;;0.87;0.87;;;18.80;99.80;;;;;;4990271;28;20433;-84
2023/10/08 00:30:43;;;;;;;0.80;0.63;;;18.80;99.90;;;;;;4988041;28;20452;-81
2023/10/08 00:33:09;;;;;;;0.40;0.20;;;19.00;99.60;;;;;;5002029;28;20465;-82
2023/10/08 00:35:39;;;;;;;1.63;1.23;;;18.80;99.40;;;;;;5007106;28;20457;-84
2023/10/08 00:38:05;;;;;;;0.50;0.30;;;18.80;99.40;;;;;;5002450;28;20445;-81
2023/10/08 00:40:40;;;;;;;1.63;1.53;;;18.80;99.60;;;;;;5000572;28;20571;-81
2023/10/08 00:43:10;;;;;;;0.40;0.20;;;18.80;99.50;;;;;;5009182;28;20259;-77
2023/10/08 00:45:43;;;;;;;1.23;1.23;;;19.50;99.80;;;;;;5015337;28;20445;-80
2023/10/08 00:48:15;;;;;;;0.50;0.30;;;19.00;99.20;;;;;;5008431;28;20445;-82
2023/10/08 00:50:46;;;;;;;0.40;0.30;;;19.00;99.10;;;;;;4987539;28;20529;-83
2023/10/08 00:53:22;;;;;;;2.10;0.70;;;18.90;99.10;;;;;;5003095;28;20476;-82
2023/10/08 00:55:53;;;;;;;0.50;0.40;;;18.90;99.00;;;;;;5008198;28;20446;-82
2023/10/08 00:58:25;;;;;;;0.50;0.47;;;18.80;99.00;;;;;;4981029;28;20767;-83
2023/10/08 01:00:56;;;;;;;0.60;0.60;;;18.70;99.00;;;;;;5016782;28;20474;-79
2023/10/08 01:03:22;;;;;;;0.50;0.40;;;18.70;99.20;;;;;;4999336;28;20465;-80
2023/10/08 01:05:48;;;;;;;2.00;1.13;;;18.70;98.90;;;;;;5003180;28;20453;-82
2023/10/08 01:08:17;;;;;;;0.50;0.30;;;18.70;98.90;;;;;;4998275;28;20198;-81
2023/10/08 01:10:47;;;;;;;0.40;0.30;;;18.60;98.70;;;;;;5001184;28;20456;-83
2023/10/08 01:13:19;;;;;;;4.43;1.07;;;18.60;98.90;;;;;;5000823;28;20553;-81
2023/10/08 01:15:47;;;;;;;0.40;0.30;;;18.60;99.40;;;;;;4979353;28;21186;-85
2023/10/08 01:18:18;;;;;;;0.80;0.73;;;18.60;98.90;;;;;;4983350;28;20446;-82
2023/10/08 01:23:26;;;;;;;0.40;0.30;;;18.40;98.90;;;;;;5003337;28;20468;-79
2023/10/08 01:25:52;;;;;;;0.60;0.60;;;18.40;98.70;;;;;;5001018;28;20480;-84
2023/10/08 01:28:28;;;;;;;0.60;0.40;;;18.40;98.20;;;;;;4983086;28;20441;-84
2023/10/08 01:30:57;;;;;;;0.57;0.43;;;18.30;98.10;;;;;;4987949;28;20437;-84
2023/10/08 01:33:27;;;;;;;0.70;0.30;;;18.30;98.40;;;;;;4986795;28;20468;-83
2023/10/08 01:35:53;;;;;;;0.80;0.80;;;18.20;98.40;;;;;;5013509;28;20479;-78
2023/10/08 01:38:23;;;;;;;0.80;0.40;;;18.80;99.20;;;;;;4991135;28;20507;-86
2023/10/08 01:40:52;;;;;;;0.40;0.30;;;18.20;99.40;;;;;;4978080;28;20905;-81
2023/10/08 01:43:19;;;;;;;0.40;0.30;;;18.20;99.40;;;;;;5003721;28;20533;-80
2023/10/08 01:45:48;;;;;;;1.50;1.40;;;18.20;99.90;;;;;;4999272;28;21282;-82
2023/10/08 01:48:27;;;;;;;0.40;0.20;;;18.20;99.90;;;;;;5001210;28;20445;-80
2023/10/08 01:51:01;;;;;;;1.80;0.40;;;18.10;99.90;;;;;;4988672;28;20441;-81
2023/10/08 01:53:31;;;;;;;0.40;0.30;;;18.10;99.90;;;;;;4987281;28;20445;-83
2023/10/08 01:55:58;;;;;;;0.70;0.60;;;18.10;99.90;;;;;;5001695;28;20465;-84
2023/10/08 01:58:24;;;;;;;0.40;0.30;;;18.10;99.90;;;;;;4990828;28;20445;-79
2023/10/08 02:00:52;;;;;;;0.40;0.20;;;18.00;99.90;;;;;;4982266;28;20441;-86
2023/10/08 02:03:18;;;;;;;0.40;0.30;;;17.70;99.90;;;;;;5001352;28;20457;-83
2023/10/08 02:05:45;;;;;;;0.40;0.30;;;17.60;99.90;;;;;;5006503;28;20883;-85
2023/10/08 02:08:12;;;;;;;0.60;0.43;;;17.50;99.90;;;;;;5022210;28;20785;-78
2023/10/08 02:10:42;;;;;;;0.40;0.30;;;17.50;99.90;;;;;;4988989;28;21397;-78
2023/10/08 02:13:09;;;;;;;1.33;0.93;;;17.50;99.90;;;;;;4986239;28;20507;-80
2023/10/08 02:15:44;;;;;;;0.50;0.47;;;17.50;99.90;;;;;;4981178;28;20481;-82
2023/10/08 02:18:10;;;;;;;0.40;0.30;;;17.40;99.90;;;;;;4983458;28;20456;-79
2023/10/08 02:20:36;;;;;;;0.60;0.50;;;17.40;99.90;;;;;;4997531;28;20447;-83
2023/10/08 02:23:01;;;;;;;0.40;0.20;;;;;;;;;;4985205;28;20992;-83
2023/10/08 02:25:27;;;;;;;0.47;0.37;;;17.30;99.90;;;;;;4978231;28;20598;-85
2023/10/08 02:27:53;;;;;;;0.67;0.53;;;17.30;99.90;;;;;;4997282;28;20472;-78
2023/10/08 02:30:18;;;;;;;0.40;0.23;;;17.20;99.90;;;;;;4979656;28;20194;-81
2023/10/08 02:32:46;;;;;;;0.40;0.20;;;17.20;99.90;;;;;;4997397;28;20228;-79
2023/10/08 02:35:12;;;;;;;2.57;1.57;;;17.20;99.90;;;;;;5000298;28;20263;-85
2023/10/08 02:37:41;;;;;;;1.27;0.50;;;;;;;;;;5000884;28;20473;-83
2023/10/08 02:40:25;;;;;;;0.67;0.40;;;17.00;99.90;;;;;;4982447;28;20453;-81
2023/10/08 02:42:52;;;;;;;0.50;0.43;;;17.00;99.90;;;;;;4983230;28;20480;-81
2023/10/08 02:45:18;;;;;;;0.60;0.50;;;17.10;99.90;;;;;;4997970;28;20471;-83
2023/10/08 02:47:46;;;;;;;0.57;0.43;;;17.10;99.90;;;;;;5002278;28;20552;-81
2023/10/08 02:50:16;;;;;;;1.00;0.73;;;17.20;99.90;;;;;;4981341;28;20855;-84
2023/10/08 02:52:44;;;;;;;3.37;2.40;;;17.30;99.90;;;;;;4991142;28;20563;-82
2023/10/08 02:55:22;;;;;;;0.50;0.40;;;17.20;99.90;;;;;;4993466;28;20446;-80
2023/10/08 02:57:50;;;;;;;1.83;1.73;;;17.20;99.90;;;;;;4977317;28;20468;-82
2023/10/08 03:00:20;;;;;;;0.60;0.60;;;17.40;99.90;;;;;;4981528;28;20533;-81
2023/10/08 03:02:46;;;;;;;1.33;1.23;;;17.40;99.90;;;;;;4980335;28;21584;-82
2023/10/08 03:05:17;;;;;;;0.40;0.20;;;17.50;99.90;;;;;;4976909;28;20466;-80
2023/10/08 03:07:43;;;;;;;1.03;0.80;;;17.30;99.90;;;;;;4999798;28;20943;-83
2023/10/08 03:10:17;;;;;;;0.47;0.40;;;17.40;99.90;;;;;;4979150;28;20453;-82
2023/10/08 03:12:44;;;;;;;0.40;0.30;;;17.30;99.90;;;;;;4972534;28;20213;-84
2023/10/08 03:15:13;;;;;;;0.40;0.30;;;17.30;99.90;;;;;;4983421;28;20449;-80
2023/10/08 03:17:48;;;;;;;0.40;0.20;;;17.10;99.90;;;;;;5018203;28;20546;-77
2023/10/08 03:23:32;;;;;;;0.40;0.20;;;17.20;99.90;;;;;;4994178;28;20468;-84
2023/10/08 03:26:09;;;;;;;2.43;2.33;;;17.00;99.90;;;;;;4997520;28;20437;-81
2023/10/08 03:28:37;;;;;;;0.40;0.30;;;16.90;99.90;;;;;;5004135;28;20455;-83
2023/10/08 03:31:04;;;;;;;0.40;0.30;;;16.80;99.90;;;;;;4989355;28;20743;-84
2023/10/08 03:33:35;;;;;;;0.93;0.43;;;16.70;99.90;;;;;;4983224;28;20537;-83
2023/10/08 03:36:09;;;;;;;0.70;0.70;;;16.70;99.90;;;;;;4980169;28;20492;-85
2023/10/08 03:38:45;;;;;;;1.47;1.33;;;16.80;99.90;;;;;;4988181;28;20437;-81
2023/10/08 03:41:16;;;;;;;0.40;0.30;;;16.50;99.90;;;;;;4999124;28;20454;-81
2023/10/08 03:43:58;;;;;;;0.50;0.50;;;16.40;99.90;;;;;;4983134;28;20441;-84
2023/10/08 03:46:26;;;;;;;0.40;0.27;;;16.40;99.90;;;;;;4989022;28;20473;-78
2023/10/08 03:48:52;;;;;;;1.17;0.70;;;16.30;99.90;;;;;;5018447;28;20476;-82
2023/10/08 03:51:21;;;;;;;0.50;0.50;;;16.20;99.90;;;;;;4989282;28;20445;-82
2023/10/08 03:54:10;;;;;;;0.40;0.30;;;16.20;99.90;;;;;;5003015;28;20444;-83
2023/10/08 03:56:36;;;;;;;0.40;0.20;;;16.10;99.90;;;;;;5003022;28;20560;-80
2023/10/08 03:59:12;;;;;;;0.90;0.30;;;16.20;99.90;;;;;;4997475;28;20536;-80
2023/10/08 04:01:42;;;;;;;0.40;0.30;;;16.20;99.90;;;;;;4982756;28;20465;-82
2023/10/08 04:04:12;;;;;;;0.50;0.40;;;16.00;99.90;;;;;;4979465;28;20451;-82
2023/10/08 04:06:38;;;;;;;0.40;0.30;;;15.90;99.90;;;;;;5004339;28;20501;-80
2023/10/08 04:11:43;;;;;;;1.53;0.90;;;16.20;99.90;;;;;;4998414;28;20214;-80
2023/10/08 04:14:09;;;;;;;0.50;0.40;;;16.30;99.90;;;;;;4996503;28;20449;-84
2023/10/08 04:16:37;;;;;;;0.50;0.37;;;16.50;99.90;;;;;;4983009;28;20472;-81
2023/10/08 04:19:07;;;;;;;0.40;0.30;;;17.00;99.90;;;;;;5004299;28;21163;-82
2023/10/08 04:21:33;;;;;;;2.03;1.70;;;16.90;99.90;;;;;;5002989;28;20473;-83
2023/10/08 04:24:03;;;;;;;0.40;0.20;;;17.20;99.90;;;;;;4986066;28;20456;-78
2023/10/08 04:26:29;;;;;;;0.40;0.20;;;17.40;99.90;;;;;;5007744;28;20524;-81
2023/10/08 04:29:02;;;;;;;0.40;0.30;;;17.50;99.90;;;;;;5001218;28;20948;-80
2023/10/08 04:31:36;;;;;;;0.40;0.30;;;17.40;99.90;;;;;;5004477;28;20983;-78
2023/10/08 04:34:06;;;;;;;0.40;0.20;;;18.80;99.90;;;;;;5002011;28;22968;-83
2023/10/08 04:36:32;;;;;;;0.67;0.50;;;17.50;99.90;;;;;;5000157;28;20473;-80
2023/10/08 04:39:04;;;;;;;0.40;0.30;;;17.50;99.90;;;;;;4994697;28;20445;-81
2023/10/08 04:41:30;;;;;;;0.40;0.27;;;17.30;99.90;;;;;;4997956;28;20214;-81
2023/10/08 04:43:55;;;;;;;0.50;0.43;;;17.30;99.90;;;;;;4995399;28;20926;-85
2023/10/08 04:46:34;;;;;;;4.00;0.40;;;17.10;99.90;;;;;;5005549;28;20444;-80
2023/10/08 04:49:05;;;;;;;0.70;0.47;;;17.00;99.90;;;;;;5000167;28;20236;-83
2023/10/08 04:51:34;;;;;;;1.90;1.13;;;16.70;99.90;;;;;;5009389;28;20516;-79
2023/10/08 04:54:04;;;;;;;0.50;0.40;;;16.70;99.90;;;;;;5001298;28;20456;-80
2023/10/08 04:56:33;;;;;;;0.60;0.60;;;16.60;99.90;;;;;;5000302;28;20502;-84
2023/10/08 04:58:58;;;;;;;0.67;0.50;;;16.50;99.90;;;;;;5006464;28;20460;-81
2023/10/08 05:01:28;;;;;;;0.40;0.30;;;16.60;99.90;;;;;;4996734;28;20469;-81
2023/10/08 05:09:10;;;;;;;1.07;0.50;;;16.90;99.90;;;;;;4994861;28;20457;-81
2023/10/08 05:22:29;;;;;;;0.40;0.30;;;16.70;99.90;;;;;;4994013;28;20464;-82
2023/10/08 05:25:10;;;;;;;0.50;0.30;;;16.60;99.90;;;;;;5001865;28;20516;-84
2023/10/08 05:30:25;;;;;;;0.40;0.20;;;16.40;99.90;;;;;;5000509;28;20938;-80
2023/10/08 05:33:24;;;;;;;0.50;0.33;;;16.30;99.90;;;;;;5000394;28;21076;-78
2023/10/08 05:35:54;;;;;;;2.00;0.90;;;16.30;99.90;;;;;;4999820;28;20635;-83
2023/10/08 06:07:48;;;;;;;0.40;0.20;;;16.50;99.90;;;;;;4997789;28;21077;-85
2023/10/08 06:16:08;;;;;;;0.40;0.20;;;17.10;99.90;;;;;;4949941;28;21158;-81
2023/10/08 06:18:34;;;;;;;0.90;0.50;;;17.30;99.90;;;;;;4985254;28;21665;-83
2023/10/08 06:21:11;;;;;;;0.60;0.47;;;17.40;99.90;;;;;;4997920;28;20441;-83
2023/10/08 06:23:43;;;;;;;0.40;0.20;;;17.50;99.90;;;;;;5073295;27;20544;-79
2023/10/08 06:28:35;;;;;;;0.50;0.47;;;17.90;99.90;;;;;;5050216;28;20212;-80
2023/10/08 06:31:03;;;;;;;0.80;0.40;;;18.90;99.90;;;;;;5046160;28;20188;-83
2023/10/08 06:33:33;;;;;;;0.70;0.60;;;17.70;99.90;;;;;;5031479;28;21059;-82
2023/10/08 06:36:02;;;;;;;0.40;0.30;;;;;;;;;;5069968;28;20462;-84
2023/10/08 06:38:32;;;;;;;0.73;0.73;;;17.70;99.90;;;;;;5031145;28;20448;-81
2023/10/08 06:43:46;;;;;;;1.30;0.70;;;17.80;99.90;;;;;;5036398;28;20504;-85
2023/10/08 06:46:12;;;;;;;0.53;0.53;;;17.80;99.90;;;;;;5048989;28;20449;-80
2023/10/08 06:48:45;;;;;;;5.60;1.47;;;17.80;99.90;;;;;;5036560;28;20833;-81
2023/10/08 06:51:14;;;;;;;0.47;0.37;;;17.80;99.90;;;;;;5036791;28;20276;-80
2023/10/08 06:53:46;;;;;;;0.40;0.27;;;18.00;99.90;;;;;;5029145;28;20463;-82
2023/10/08 06:56:14;;;;;;;0.40;0.40;;;18.30;99.90;;;;;;5032380;28;20474;-81
2023/10/08 06:58:53;;;;;;;0.50;0.30;;;19.10;99.90;;;;;;5036697;28;21039;-83
2023/10/08 07:01:24;;;;;;;0.40;0.30;;;19.10;99.90;;;;;;5032887;28;20512;-83
2023/10/08 07:04:03;;;;;;;1.13;0.53;;;20.00;99.90;;;;;;5035742;28;20462;-79
2023/10/08 07:06:33;;;;;;;0.47;0.40;;;21.30;99.90;;;;;;5034365;28;20806;-86
2023/10/08 07:09:04;;;;;;;0.57;0.57;;;22.80;99.90;;;;;;5028992;28;20446;-79
2023/10/08 07:11:34;;;;;;;0.50;0.40;;;24.30;99.90;;;;;;5025894;28;20470;-83
2023/10/08 07:14:04;;;;;;;0.70;0.60;;;24.80;99.90;;;;;;5046681;28;21001;-83
2023/10/08 07:16:30;;;;;;;1.23;0.53;;;24.60;98.90;;;;;;5046624;28;20505;-84
2023/10/08 07:19:02;;;;;;;0.97;0.97;;;23.90;96.90;;;;;;5035995;28;20539;-83
2023/10/08 07:21:44;;;;;;;0.60;0.60;;;23.20;97.30;;;;;;5036378;28;20480;-81
2023/10/08 07:24:21;;;;;;;0.43;0.33;;;22.70;97.70;;;;;;5028553;28;20448;-80
2023/10/08 07:26:49;;;;;;;0.50;0.50;;;22.10;98.00;;;;;;5032255;28;20436;-83
2023/10/08 07:29:17;;;;;;;1.07;0.40;;;21.80;98.60;;;;;;5027224;28;20435;-83
2023/10/08 07:31:48;;;;;;;0.87;0.87;;;21.40;99.60;;;;;;5050295;28;20877;-80
2023/10/08 07:34:18;;;;;;;0.40;0.30;;;20.10;99.90;;;;;;5052236;28;20775;-79
2023/10/08 07:36:47;;;;;;;0.60;0.30;;;19.50;99.90;;;;;;5023163;28;20441;-84
2023/10/08 07:41:56;;;;;;;1.00;0.40;;;19.20;99.90;;;;;;5020709;28;22571;-83
2023/10/08 07:44:23;;;;;;;0.93;0.50;;;19.30;99.90;;;;;;5054195;28;20446;-80
2023/10/08 07:46:55;;;;;;;0.50;0.40;;;19.20;99.90;;;;;;5031002;28;20877;-78
2023/10/08 07:49:30;;;;;;;0.40;0.30;;;19.40;99.90;;;;;;5019066;28;20480;-81
2023/10/08 07:51:58;;;;;;;0.73;0.47;;;19.20;99.90;;;;;;5014999;28;20455;-84
2023/10/08 07:54:27;;;;;;;0.70;0.60;;;19.30;99.90;;;;;;5016572;28;21042;-82
2023/10/08 07:57:09;;;;;;;0.40;0.20;;;19.20;99.90;;;;;;5018736;28;20456;-79
2023/10/08 07:59:38;;;;;;;0.50;0.37;;;19.20;99.90;;;;;;5053192;28;20475;-77
2023/10/08 08:02:11;;;;;;;0.50;0.43;;;19.60;99.90;;;;;;5019679;28;20498;-79
2023/10/08 08:04:45;;;;;;;0.50;0.40;;;21.00;99.90;;;;;;5024948;28;20444;-82
2023/10/08 08:07:17;;;;;;;8.23;0.70;;;22.60;99.90;;;;;;5017346;28;20484;-83
2023/10/08 08:09:50;;;;;;;0.60;0.33;;;24.10;99.90;;;;;;5029358;28;20445;-81
2023/10/08 08:12:21;;;;;;;0.50;0.40;;;24.90;96.80;;;;;;5048545;28;23864;-82
2023/10/08 08:14:47;;;;;;;2.10;1.40;;;25.40;93.90;;;;;;5029980;28;20452;-80
2023/10/08 08:17:14;;;;;;;0.50;0.30;;;25.30;93.60;;;;;;5027037;28;20533;-82
2023/10/08 08:19:47;;;;;;;0.87;0.87;;;25.30;93.00;;;;;;5039225;28;20471;-84
2023/10/08 08:22:21;;;;;;;2.00;1.90;;;25.20;90.80;;;;;;5021805;28;20474;-77
2023/10/08 08:24:54;;;;;;;2.60;1.70;;;25.20;91.20;;;;;;5011054;28;20446;-83
2023/10/08 08:27:31;;;;;;;0.87;0.87;;;25.20;90.70;;;;;;5018562;28;21251;-82
2023/10/08 08:30:09;;;;;;;0.67;0.50;;;23.90;89.50;;;;;;5020957;28;20447;-84
2023/10/08 08:32:38;;;;;;;0.77;0.77;;;;;;;;;;5015304;28;20475;-79
2023/10/08 08:35:09;;;;;;;0.40;0.30;;;24.10;90.50;;;;;;5029957;28;20444;-82
2023/10/08 08:37:35;;;;;;;0.93;0.67;;;22.90;90.50;;;;;;5012713;28;20545;-83
2023/10/08 08:40:08;;;;;;;0.50;0.40;;;23.40;91.80;;;;;;5013147;28;23479;-83
2023/10/08 08:42:35;;;;;;;0.40;0.30;;;23.30;91.10;;;;;;5013064;28;20474;-78
2023/10/08 08:45:08;;;;;;;1.53;1.43;;;22.70;91.00;;;;;;5047503;28;20444;-82
2023/10/08 08:47:35;;;;;;;0.40;0.30;;;22.30;92.10;;;;;;5016947;28;20432;-82
2023/10/08 08:50:08;;;;;;;0.60;0.50;;;22.50;93.50;;;;;;5012200;28;20495;-83
2023/10/08 08:52:38;;;;;;;1.00;0.57;;;22.50;92.50;;;;;;5031253;28;20476;-79
2023/10/08 08:55:09;;;;;;;0.77;0.60;;;22.20;92.30;;;;;;5031050;28;20441;-82
2023/10/08 08:57:39;;;;;;;1.23;0.73;;;21.90;93.10;;;;;;5018987;28;20462;-78
2023/10/08 09:00:11;;;;;;;1.13;0.60;;;22.10;93.80;;;;;;5025234;28;20428;-76
2023/10/08 09:02:40;;;;;;;0.50;0.43;;;22.70;94.10;;;;;;5027338;28;20481;-80
2023/10/08 09:05:25;;;;;;;0.50;0.33;;;23.00;93.30;;;;;;5033520;28;20436;-80
2023/10/08 09:08:09;;;;;;;0.90;0.77;;;23.40;93.50;;;;;;5048022;28;20441;-79
2023/10/08 09:10:50;;;;;;;1.23;0.73;;;24.30;92.70;;;;;;5003658;28;20444;-78
2023/10/08 09:13:22;;;;;;;0.50;0.40;;;24.00;92.70;;;;;;5021929;28;20479;-80
2023/10/08 09:15:51;;;;;;;0.77;0.77;;;24.50;92.70;;;;;;5033492;28;20519;-82
2023/10/08 09:18:17;;;;;;;0.50;0.50;;;24.60;91.00;;;;;;5035443;28;20548;-80
2023/10/08 09:20:43;;;;;;;0.80;0.70;;;24.40;90.60;;;;;;5021479;28;20441;-83
2023/10/08 09:23:21;;;;;;;0.70;0.60;;;23.60;92.10;;;;;;5038005;28;20550;-77
2023/10/08 09:25:51;;;;;;;1.10;0.50;;;;;;;;;;5038274;28;20461;-78
2023/10/08 09:28:17;;;;;;;0.90;0.73;;;24.30;92.00;;;;;;5037517;28;20442;-80
2023/10/08 09:30:45;;;;;;;0.50;0.40;;;23.70;91.30;;;;;;5019628;28;21602;-82
2023/10/08 09:33:12;;;;;;;0.80;0.50;;;23.40;91.90;;;;;;5016870;28;21159;-84
2023/10/08 09:35:38;;;;;;;2.20;0.40;;;22.50;92.50;;;;;;5018105;28;20443;-78
2023/10/08 09:38:08;;;;;;;0.90;0.60;;;22.60;94.00;;;;;;5022493;28;20453;-81
2023/10/08 09:40:36;;;;;;;0.40;0.20;;;22.70;94.30;;;;;;5032684;28;20488;-81
2023/10/08 09:43:03;;;;;;;0.53;0.30;;;22.80;94.60;;;;;;5022557;28;20469;-81
2023/10/08 09:45:30;;;;;;;2.60;0.47;;;22.80;93.80;;;;;;5017913;28;20440;-78
2023/10/08 09:48:01;;;;;;;0.40;0.30;;;22.50;94.10;;;;;;5043020;28;20460;-80
2023/10/08 09:50:32;;;;;;;1.57;1.47;;;22.20;94.80;;;;;;5044477;28;20448;-81
2023/10/08 09:53:19;;;;;;;0.50;0.30;;;22.20;95.00;;;;;;5012544;28;20548;-83
2023/10/08 09:55:54;;;;;;;0.40;0.30;;;22.00;95.80;;;;;;5017779;28;21005;-82
2023/10/08 09:58:22;;;;;;;1.30;0.67;;;21.70;96.10;;;;;;5008256;28;20444;-79
2023/10/08 10:00:49;;;;;;;0.50;0.40;;;21.50;96.20;;;;;;5028537;28;20455;-77
2023/10/08 10:03:18;;;;;;;0.50;0.40;;;21.10;96.10;;;;;;5048402;28;20480;-80
2023/10/08 10:05:44;;;;;;;0.50;0.40;;;20.90;96.40;;;;;;5025587;28;20531;-81
2023/10/08 10:08:10;;;;;;;0.40;0.20;;;21.00;97.50;;;;;;5015029;28;20459;-78
2023/10/08 10:10:38;;;;;;;0.70;0.30;;;20.90;97.30;;;;;;5037066;28;20444;-80
2023/10/08 10:13:10;;;;;;;2.20;0.90;;;20.60;97.10;;;;;;5011527;28;21280;-84
2023/10/08 10:15:41;;;;;;;0.60;0.30;;;20.70;97.40;;;;;;5012102;28;20445;-81
2023/10/08 10:18:14;;;;;;;0.40;0.30;;;20.90;97.10;;;;;;5030056;28;20453;-81
2023/10/08 10:20:45;;;;;;;2.20;1.10;;;20.90;97.50;;;;;;5031963;28;20563;-82
2023/10/08 10:23:50;;;;;;;2.77;0.40;;;21.00;97.80;;;;;;5043313;28;20467;-78
2023/10/08 10:26:33;;;;;;;1.00;0.80;;;20.90;98.70;;;;;;5025369;28;20480;-81
2023/10/08 10:29:14;;;;;;;3.07;1.90;;;21.10;98.20;;;;;;5029787;28;20454;-85
2023/10/08 10:31:46;;;;;;;0.97;0.87;;;21.40;98.40;;;;;;5029176;28;20523;-79
2023/10/08 10:34:17;;;;;;;0.40;0.30;;;21.70;98.40;;;;;;5009811;28;20535;-83
2023/10/08 10:36:48;;;;;;;1.53;0.73;;;22.00;97.40;;;;;;5030344;28;20440;-81
2023/10/08 10:39:29;;;;;;;0.40;0.30;;;22.60;97.70;;;;;;5026182;28;20440;-83
2023/10/08 10:42:20;;;;;;;0.50;0.40;;;23.10;96.90;;;;;;5018360;28;21563;-82
2023/10/08 10:44:49;;;;;;;0.60;0.43;;;23.20;95.90;;;;;;5021029;28;20445;-79
2023/10/08 10:49:53;;;;;;;0.50;0.40;;;22.70;94.80;;;;;;5015602;28;20451;-81
2023/10/08 10:52:44;;;;;;;0.50;0.40;;;22.70;96.30;;;;;;5016214;28;20463;-83
2023/10/08 10:57:55;;;;;;;0.90;0.50;;;22.10;95.50;;;;;;5013868;28;20482;-79
2023/10/08 11:03:02;;;;;;;0.50;0.47;;;21.80;95.40;;;;;;5018731;28;20512;-82
2023/10/08 11:05:33;;;;;;;0.40;0.30;;;21.90;96.20;;;;;;5048509;28;20797;-81
2023/10/08 11:08:06;;;;;;;0.57;0.50;;;22.10;95.90;;;;;;5038105;28;20453;-84
2023/10/08 11:10:38;;;;;;;1.27;0.50;;;22.10;95.50;;;;;;5021986;28;21015;-79
2023/10/08 11:13:14;;;;;;;0.77;0.57;;;22.70;93.90;;;;;;5033396;28;21074;-80
2023/10/08 11:15:42;;;;;;;0.80;0.77;;;23.20;94.50;;;;;;5026871;28;20440;-78
2023/10/08 11:18:11;;;;;;;0.40;0.30;;;22.70;94.20;;;;;;5048570;28;20465;-80
2023/10/08 11:20:39;;;;;;;1.03;0.83;;;22.70;93.90;;;;;;5031657;28;20523;-78
2023/10/08 11:23:17;;;;;;;0.50;0.40;;;22.70;93.60;;;;;;5037907;28;20543;-79
2023/10/08 11:25:53;;;;;;;0.40;0.20;;;23.00;93.50;;;;;;5023882;28;20459;-81
2023/10/08 11:28:19;;;;;;;1.03;0.60;;;;;;;;;;5018381;28;20444;-80
2023/10/08 11:30:46;;;;;;;1.23;1.13;;;23.10;93.00;;;;;;5023838;28;20448;-80
2023/10/08 11:33:15;;;;;;;2.03;1.50;;;23.20;93.90;;;;;;5025650;28;20495;-82
2023/10/08 11:36:02;;;;;;;0.40;0.30;;;23.10;92.40;;;;;;5029045;28;20441;-80
2023/10/08 11:38:37;;;;;;;0.40;0.20;;;23.40;92.80;;;;;;5036749;28;20452;-82
2023/10/08 11:41:23;;;;;;;0.50;0.50;;;23.30;92.20;;;;;;5063170;28;21842;-78
2023/10/08 11:43:58;;;;;;;0.70;0.50;;;23.30;92.40;;;;;;5029594;28;20467;-80
2023/10/08 11:46:38;;;;;;;1.10;1.00;;;23.40;92.70;;;;;;5048028;28;20440;-81
2023/10/08 11:49:05;;;;;;;0.60;0.40;;;23.60;91.80;;;;;;5027085;28;20514;-76
2023/10/08 11:51:36;;;;;;;2.90;0.90;;;23.70;91.90;;;;;;5038948;28;20687;-80
2023/10/08 11:54:05;;;;;;;2.57;0.80;;;23.70;92.20;;;;;;5027932;28;20429;-77
2023/10/08 11:56:33;;;;;;;2.70;1.73;;;24.00;91.60;;;;;;5034611;28;20438;-83
2023/10/08 11:59:01;;;;;;;1.63;1.27;;;23.90;91.20;;;;;;5025373;28;20756;-83
2023/10/08 12:01:27;;;;;;;1.07;0.63;;;23.80;91.10;;;;;;5034270;28;20498;-79
2023/10/08 12:03:59;;;;;;;1.67;0.30;;;24.40;91.30;;;;;;5015657;28;20480;-84
2023/10/08 12:06:24;;;;;;;0.60;0.60;;;24.30;91.50;;;;;;5018952;28;20193;-81
2023/10/08 12:08:53;;;;;;;1.03;0.67;;;;;;;;;;5021111;28;20433;-84
2023/10/08 12:11:19;;;;;;;0.40;0.33;;;24.20;90.60;;;;;;5036095;28;20263;-81
2023/10/08 12:13:45;;;;;;;0.60;0.40;;;24.30;91.00;;;;;;5043424;28;20449;-83
2023/10/08 12:16:18;;;;;;;0.70;0.70;;;24.30;91.30;;;;;;5061123;28;20457;-80
2023/10/08 12:18:58;;;;;;;0.60;0.60;;;24.50;90.90;;;;;;5017041;28;20190;-81
2023/10/08 12:21:24;;;;;;;1.27;1.00;;;24.10;87.90;;;;;;5032544;28;21414;-85
2023/10/08 12:23:51;;;;;;;1.17;0.50;;;24.00;88.90;;;;;;5018229;28;20481;-86
2023/10/08 12:26:20;;;;;;;1.10;0.50;;;23.90;90.00;;;;;;5031047;28;20452;-82
2023/10/08 12:28:48;;;;;;;1.23;0.40;;;24.10;90.50;;;;;;5049693;28;20444;-82
2023/10/08 12:31:22;;;;;;;0.50;0.50;;;24.30;90.90;;;;;;5018558;28;20445;-83
2023/10/08 12:33:48;;;;;;;0.70;0.50;;;24.30;90.80;;;;;;5018002;28;20449;-84
2023/10/08 12:36:16;;;;;;;0.40;0.30;;;24.20;88.90;;;;;;5016025;28;20456;-83
2023/10/08 12:38:42;;;;;;;1.17;0.93;;;23.90;89.10;;;;;;5050030;28;20583;-84
2023/10/08 12:41:11;;;;;;;0.60;0.30;;;24.20;91.80;;;;;;5049486;28;20459;-85
2023/10/08 12:43:38;;;;;;;0.60;0.40;;;24.30;90.40;;;;;;5023529;28;20477;-81
2023/10/08 12:46:10;;;;;;;0.50;0.43;;;24.20;89.60;;;;;;5032393;28;20446;-79
2023/10/08 12:48:36;;;;;;;0.40;0.30;;;24.20;89.50;;;;;;5020494;28;20445;-79
2023/10/08 12:51:05;;;;;;;0.50;0.50;;;24.20;89.10;;;;;;5031826;28;20447;-83
2023/10/08 12:53:36;;;;;;;1.53;1.43;;;;;;;;;;5008746;28;20473;-84
2023/10/08 12:56:06;;;;;;;11.33;1.43;;;23.80;87.60;;;;;;5031715;28;20441;-81
2023/10/08 12:58:47;;;;;;;0.40;0.30;;;23.70;89.10;;;;;;5023904;28;20452;-82
2023/10/08 13:01:17;;;;;;;0.50;0.40;;;23.70;91.00;;;;;;5019200;28;20501;-80
2023/10/08 13:03:47;;;;;;;0.93;0.87;;;23.90;91.20;;;;;;5033970;28;20472;-82
2023/10/08 13:06:28;;;;;;;0.50;0.30;;;23.80;90.00;;;;;;5028969;28;21380;-83
2023/10/08 13:08:54;;;;;;;0.50;0.40;;;23.50;89.00;;;;;;5042998;28;20518;-77
2023/10/08 13:11:23;;;;;;;0.83;0.60;;;23.70;88.40;;;;;;5058044;28;20440;-77
2023/10/08 13:13:56;;;;;;;0.73;0.70;;;23.70;89.10;;;;;;5024538;28;20470;-78
2023/10/08 13:16:22;;;;;;;0.50;0.40;;;23.70;89.60;;;;;;5014664;28;20444;-78
2023/10/08 13:18:49;;;;;;;0.50;0.30;;;23.80;89.20;;;;;;5026983;28;20433;-83
2023/10/08 13:21:15;;;;;;;0.53;0.47;;;23.90;90.80;;;;;;5031576;28;20443;-81
2023/10/08 13:23:41;;;;;;;0.40;0.30;;;24.00;91.10;;;;;;5014548;28;20468;-82
2023/10/08 13:26:07;;;;;;;0.60;0.60;;;24.10;90.70;;;;;;5049751;28;20837;-80
2023/10/08 13:28:35;;;;;;;0.50;0.50;;;24.00;90.60;;;;;;5013464;28;20449;-84
2023/10/08 13:31:10;;;;;;;0.40;0.30;;;23.90;90.80;;;;;;5008705;28;20816;-81
2023/10/08 13:33:40;;;;;;;1.63;0.87;;;24.00;92.00;;;;;;5038223;28;20457;-76
2023/10/08 13:36:13;;;;;;;0.50;0.40;;;23.90;91.70;;;;;;5025169;28;20452;-78
2023/10/08 13:38:40;;;;;;;0.93;0.80;;;24.00;91.80;;;;;;5033748;28;20634;-82
2023/10/08 13:41:14;;;;;;;0.50;0.40;;;24.00;91.60;;;;;;5014107;28;20456;-80
2023/10/08 13:43:47;;;;;;;0.50;0.40;;;24.00;91.40;;;;;;5008273;28;20572;-83
2023/10/08 13:46:14;;;;;;;1.23;1.13;;;24.00;91.60;;;;;;5025236;28;20452;-78
2023/10/08 13:48:42;;;;;;;0.53;0.40;;;24.00;91.60;;;;;;5004947;28;20449;-82
2023/10/08 13:51:14;;;;;;;0.50;0.30;;;24.00;92.00;;;;;;5012392;28;21679;-79
2023/10/08 13:53:52;;;;;;;1.17;0.63;;;24.00;92.00;;;;;;5035524;28;20479;-78
2023/10/08 13:56:20;;;;;;;0.70;0.50;;;23.90;92.00;;;;;;5023452;28;20870;-82
2023/10/08 13:58:46;;;;;;;0.67;0.40;;;24.00;91.90;;;;;;5019842;28;20571;-79
2023/10/08 14:01:21;;;;;;;0.80;0.73;;;24.10;92.70;;;;;;5026130;28;20449;-83
2023/10/08 14:03:53;;;;;;;0.50;0.30;;;24.00;91.90;;;;;;5007859;28;20468;-81
2023/10/08 14:06:20;;;;;;;0.90;0.87;;;24.00;92.80;;;;;;5014835;28;20449;-79
2023/10/08 14:08:54;;;;;;;0.50;0.40;;;24.00;92.30;;;;;;5023939;28;23059;-80
2023/10/08 14:11:23;;;;;;;0.80;0.60;;;26.00;92.50;;;;;;5026666;28;20479;-83
2023/10/08 14:13:52;;;;;;;0.50;0.30;;;24.00;91.80;;;;;;5021039;28;20448;-82
2023/10/08 14:16:23;;;;;;;1.03;1.03;;;23.90;92.50;;;;;;5039963;28;20445;-82
2023/10/08 14:18:53;;;;;;;0.40;0.33;;;23.90;92.10;;;;;;5011639;28;20560;-80
2023/10/08 14:21:23;;;;;;;0.70;0.60;;;23.80;92.50;;;;;;5005653;28;20448;-81
2023/10/08 14:23:52;;;;;;;0.80;0.57;;;23.80;92.80;;;;;;5028250;28;20472;-80
2023/10/08 14:26:21;;;;;;;0.83;0.53;;;23.80;93.20;;;;;;5032500;28;20571;-78